sensor_id;sensor_type;location;lat;lon;timestamp;pressure;altitude;pressure_sealevel;temperature;humidity
46379;BME280;32084;42.254;22.744;2022-12-08T00:01:27;95059.44;;;6.24;69.15
46379;BME280;32084;42.254;22.744;2022-12-08T00:03:54;95056.50;;;6.37;68.40
46379;BME280;32084;42.254;22.744;2022-12-08T00:06:22;95062.34;;;6.31;67.39
46379;BME280;32084;42.254;22.744;2022-12-08T00:09:11;95063.56;;;5.98;69.16
46379;BME280;32084;42.254;22.744;2022-12-08T00:11:47;95077.41;;;6.01;68.51
46379;BME280;32084;42.254;22.744;2022-12-08T00:14:13;95077.09;;;6.04;68.92
46379;BME280;32084;42.254;22.744;2022-12-08T00:16:40;95089.41;;;6.05;69.50
46379;BME280;32084;42.254;22.744;2022-12-08T00:19:06;95084.38;;;6.02;69.17
46379;BME280;32084;42.254;22.744;2022-12-08T00:21:32;95075.91;;;5.87;68.44
46379;BME280;32084;42.254;22.744;2022-12-08T00:23:58;95074.03;;;5.78;68.92
46379;BME280;32084;42.254;22.744;2022-12-08T00:26:25;95068.91;;;5.77;69.17
46379;BME280;32084;42.254;22.744;2022-12-08T00:28:51;95073.56;;;5.94;69.01
46379;BME280;32084;42.254;22.744;2022-12-08T00:31:18;95077.66;;;5.98;69.47
46379;BME280;32084;42.254;22.744;2022-12-08T00:33:44;95079.75;;;6.04;67.47
46379;BME280;32084;42.254;22.744;2022-12-08T00:36:11;95079.84;;;5.93;68.56
46379;BME280;32084;42.254;22.744;2022-12-08T00:38:38;95077.97;;;5.84;69.88
46379;BME280;32084;42.254;22.744;2022-12-08T00:41:11;95079.94;;;5.51;71.77
46379;BME280;32084;42.254;22.744;2022-12-08T00:43:37;95075.13;;;5.66;71.00
46379;BME280;32084;42.254;22.744;2022-12-08T00:46:03;95085.97;;;5.94;69.22
46379;BME280;32084;42.254;22.744;2022-12-08T00:48:30;95085.50;;;6.00;69.35
46379;BME280;32084;42.254;22.744;2022-12-08T00:50:56;95078.00;;;6.15;69.11
46379;BME280;32084;42.254;22.744;2022-12-08T00:53:22;95079.88;;;6.03;69.59
46379;BME280;32084;42.254;22.744;2022-12-08T00:55:48;95081.59;;;6.04;70.10
46379;BME280;32084;42.254;22.744;2022-12-08T00:58:15;95074.63;;;5.82;71.54
46379;BME280;32084;42.254;22.744;2022-12-08T01:00:41;95073.88;;;6.01;69.25
46379;BME280;32084;42.254;22.744;2022-12-08T01:03:09;95074.06;;;6.09;69.64
46379;BME280;32084;42.254;22.744;2022-12-08T01:05:35;95076.63;;;6.20;69.51
46379;BME280;32084;42.254;22.744;2022-12-08T01:08:05;95066.81;;;6.21;69.44
46379;BME280;32084;42.254;22.744;2022-12-08T01:10:35;95073.53;;;6.25;69.30
46379;BME280;32084;42.254;22.744;2022-12-08T01:13:02;95077.03;;;6.25;69.61
46379;BME280;32084;42.254;22.744;2022-12-08T01:15:28;95082.19;;;6.27;70.44
46379;BME280;32084;42.254;22.744;2022-12-08T01:17:55;95088.34;;;6.37;70.09
46379;BME280;32084;42.254;22.744;2022-12-08T01:20:21;95095.91;;;6.32;70.20
46379;BME280;32084;42.254;22.744;2022-12-08T01:22:47;95088.88;;;6.12;71.51
46379;BME280;32084;42.254;22.744;2022-12-08T01:25:14;95081.22;;;6.28;70.87
46379;BME280;32084;42.254;22.744;2022-12-08T01:27:40;95078.03;;;6.34;71.23
46379;BME280;32084;42.254;22.744;2022-12-08T01:30:07;95074.53;;;6.34;71.61
46379;BME280;32084;42.254;22.744;2022-12-08T01:32:34;95086.81;;;6.35;71.48
46379;BME280;32084;42.254;22.744;2022-12-08T01:35:01;95091.19;;;6.55;71.03
46379;BME280;32084;42.254;22.744;2022-12-08T01:37:28;95079.31;;;6.69;70.34
46379;BME280;32084;42.254;22.744;2022-12-08T01:39:54;95072.03;;;6.52;70.76
46379;BME280;32084;42.254;22.744;2022-12-08T01:42:20;95057.06;;;6.41;70.93
46379;BME280;32084;42.254;22.744;2022-12-08T01:47:20;95059.66;;;6.12;74.13
46379;BME280;32084;42.254;22.744;2022-12-08T01:49:48;95053.69;;;6.29;74.22
46379;BME280;32084;42.254;22.744;2022-12-08T01:52:22;95055.41;;;6.50;73.16
46379;BME280;32084;42.254;22.744;2022-12-08T01:55:15;95056.81;;;6.63;72.24
46379;BME280;32084;42.254;22.744;2022-12-08T01:57:41;95060.44;;;6.72;71.60
46379;BME280;32084;42.254;22.744;2022-12-08T02:00:09;95063.81;;;6.74;71.80
46379;BME280;32084;42.254;22.744;2022-12-08T02:05:22;95061.28;;;6.73;71.58
46379;BME280;32084;42.254;22.744;2022-12-08T02:07:50;95064.75;;;6.73;71.94
46379;BME280;32084;42.254;22.744;2022-12-08T02:10:18;95071.06;;;6.72;72.27
46379;BME280;32084;42.254;22.744;2022-12-08T02:12:44;95070.50;;;6.78;71.67
46379;BME280;32084;42.254;22.744;2022-12-08T02:15:11;95063.81;;;6.74;72.22
46379;BME280;32084;42.254;22.744;2022-12-08T02:28:54;95049.53;;;6.56;72.92
46379;BME280;32084;42.254;22.744;2022-12-08T02:36:10;95053.19;;;6.55;73.90
46379;BME280;32084;42.254;22.744;2022-12-08T02:43:49;95051.47;;;6.44;74.43
46379;BME280;32084;42.254;22.744;2022-12-08T02:46:23;95056.94;;;6.62;74.20
46379;BME280;32084;42.254;22.744;2022-12-08T02:48:52;95050.66;;;6.82;73.36
46379;BME280;32084;42.254;22.744;2022-12-08T02:51:19;95060.31;;;6.74;73.44
46379;BME280;32084;42.254;22.744;2022-12-08T02:53:45;95047.44;;;6.69;74.00
46379;BME280;32084;42.254;22.744;2022-12-08T03:04:37;95034.28;;;6.68;73.70
46379;BME280;32084;42.254;22.744;2022-12-08T03:07:09;95037.25;;;6.64;74.02
46379;BME280;32084;42.254;22.744;2022-12-08T03:09:41;95034.72;;;6.63;74.20
46379;BME280;32084;42.254;22.744;2022-12-08T03:12:13;95027.03;;;6.79;73.72
46379;BME280;32084;42.254;22.744;2022-12-08T03:14:43;95026.03;;;6.80;73.61
46379;BME280;32084;42.254;22.744;2022-12-08T03:17:11;95032.19;;;6.81;73.19
46379;BME280;32084;42.254;22.744;2022-12-08T03:19:38;95024.63;;;6.86;73.23
46379;BME280;32084;42.254;22.744;2022-12-08T03:22:05;95029.25;;;6.84;73.21
46379;BME280;32084;42.254;22.744;2022-12-08T03:24:34;95033.31;;;6.78;73.70
46379;BME280;32084;42.254;22.744;2022-12-08T03:27:02;95030.66;;;6.78;74.18
46379;BME280;32084;42.254;22.744;2022-12-08T03:29:29;95031.50;;;6.59;75.37
46379;BME280;32084;42.254;22.744;2022-12-08T03:31:58;95036.38;;;6.54;75.74
46379;BME280;32084;42.254;22.744;2022-12-08T03:34:28;95036.66;;;6.80;74.65
46379;BME280;32084;42.254;22.744;2022-12-08T03:36:56;95043.94;;;6.78;74.88
46379;BME280;32084;42.254;22.744;2022-12-08T03:39:25;95046.31;;;6.52;76.18
46379;BME280;32084;42.254;22.744;2022-12-08T03:41:51;95046.16;;;6.63;75.64
46379;BME280;32084;42.254;22.744;2022-12-08T03:44:18;95053.31;;;6.82;74.47
46379;BME280;32084;42.254;22.744;2022-12-08T03:46:45;95048.84;;;6.93;74.22
46379;BME280;32084;42.254;22.744;2022-12-08T03:49:11;95045.59;;;6.99;74.24
46379;BME280;32084;42.254;22.744;2022-12-08T03:51:37;95037.06;;;7.05;74.10
46379;BME280;32084;42.254;22.744;2022-12-08T03:54:03;95031.03;;;7.03;74.57
46379;BME280;32084;42.254;22.744;2022-12-08T03:56:31;95047.69;;;6.95;73.79
46379;BME280;32084;42.254;22.744;2022-12-08T03:58:58;95054.69;;;6.77;73.85
46379;BME280;32084;42.254;22.744;2022-12-08T04:01:25;95048.56;;;6.76;73.44
46379;BME280;32084;42.254;22.744;2022-12-08T04:03:52;95054.56;;;6.78;73.38
46379;BME280;32084;42.254;22.744;2022-12-08T04:06:18;95055.13;;;6.82;73.46
46379;BME280;32084;42.254;22.744;2022-12-08T04:08:45;95062.97;;;6.74;73.61
46379;BME280;32084;42.254;22.744;2022-12-08T04:11:12;95066.88;;;6.70;73.31
46379;BME280;32084;42.254;22.744;2022-12-08T04:13:39;95054.56;;;6.59;73.81
46379;BME280;32084;42.254;22.744;2022-12-08T04:16:06;95055.66;;;6.56;74.18
46379;BME280;32084;42.254;22.744;2022-12-08T04:18:33;95063.94;;;6.63;73.77
46379;BME280;32084;42.254;22.744;2022-12-08T04:21:00;95060.44;;;6.72;73.73
46379;BME280;32084;42.254;22.744;2022-12-08T04:23:26;95071.91;;;6.73;73.71
46379;BME280;32084;42.254;22.744;2022-12-08T04:25:52;95066.03;;;6.69;73.97
46379;BME280;32084;42.254;22.744;2022-12-08T04:28:18;95063.38;;;6.59;74.44
46379;BME280;32084;42.254;22.744;2022-12-08T04:30:44;95065.91;;;6.61;74.33
46379;BME280;32084;42.254;22.744;2022-12-08T04:33:12;95056.53;;;6.57;74.97
46379;BME280;32084;42.254;22.744;2022-12-08T04:35:38;95055.13;;;6.62;74.88
46379;BME280;32084;42.254;22.744;2022-12-08T04:38:04;95058.50;;;6.74;74.44
46379;BME280;32084;42.254;22.744;2022-12-08T04:40:30;95054.69;;;6.77;74.37
46379;BME280;32084;42.254;22.744;2022-12-08T04:42:56;95059.19;;;6.76;73.83
46379;BME280;32084;42.254;22.744;2022-12-08T04:45:23;95062.53;;;6.78;73.79
46379;BME280;32084;42.254;22.744;2022-12-08T04:47:49;95067.72;;;6.80;73.77
46379;BME280;32084;42.254;22.744;2022-12-08T04:50:15;95056.97;;;6.81;73.54
46379;BME280;32084;42.254;22.744;2022-12-08T04:52:41;95064.63;;;6.84;73.41
46379;BME280;32084;42.254;22.744;2022-12-08T04:55:07;95059.31;;;6.84;73.25
46379;BME280;32084;42.254;22.744;2022-12-08T04:57:33;95060.56;;;6.80;73.45
46379;BME280;32084;42.254;22.744;2022-12-08T05:00:00;95060.59;;;6.71;73.44
46379;BME280;32084;42.254;22.744;2022-12-08T05:02:26;95068.81;;;6.68;73.55
46379;BME280;32084;42.254;22.744;2022-12-08T05:04:52;95071.06;;;6.53;74.00
46379;BME280;32084;42.254;22.744;2022-12-08T05:07:18;95071.91;;;6.63;73.70
46379;BME280;32084;42.254;22.744;2022-12-08T05:09:44;95080.31;;;6.68;73.04
46379;BME280;32084;42.254;22.744;2022-12-08T05:12:10;95095.94;;;6.52;73.44
46379;BME280;32084;42.254;22.744;2022-12-08T05:14:37;95093.47;;;6.10;75.54
46379;BME280;32084;42.254;22.744;2022-12-08T05:17:03;95092.13;;;6.25;74.56
46379;BME280;32084;42.254;22.744;2022-12-08T05:19:29;95092.00;;;6.36;73.11
46379;BME280;32084;42.254;22.744;2022-12-08T05:21:55;95106.53;;;6.32;72.86
46379;BME280;32084;42.254;22.744;2022-12-08T05:24:21;95101.34;;;6.21;73.43
46379;BME280;32084;42.254;22.744;2022-12-08T05:26:47;95099.16;;;6.05;74.62
46379;BME280;32084;42.254;22.744;2022-12-08T05:29:13;95099.50;;;6.12;74.66
46379;BME280;32084;42.254;22.744;2022-12-08T05:31:39;95091.25;;;6.15;73.48
46379;BME280;32084;42.254;22.744;2022-12-08T05:34:05;95092.47;;;6.11;73.62
46379;BME280;32084;42.254;22.744;2022-12-08T05:36:32;95101.19;;;6.22;73.07
46379;BME280;32084;42.254;22.744;2022-12-08T05:38:58;95103.00;;;6.22;73.23
46379;BME280;32084;42.254;22.744;2022-12-08T05:41:24;95099.66;;;6.30;72.99
46379;BME280;32084;42.254;22.744;2022-12-08T05:43:50;95104.84;;;6.31;73.28
46379;BME280;32084;42.254;22.744;2022-12-08T05:46:16;95097.84;;;6.20;73.60
46379;BME280;32084;42.254;22.744;2022-12-08T05:48:42;95102.06;;;6.33;73.15
46379;BME280;32084;42.254;22.744;2022-12-08T05:51:16;95101.22;;;6.32;73.28
46379;BME280;32084;42.254;22.744;2022-12-08T05:53:42;95116.56;;;6.19;74.00
46379;BME280;32084;42.254;22.744;2022-12-08T05:56:08;95123.03;;;6.36;72.90
46379;BME280;32084;42.254;22.744;2022-12-08T05:58:34;95116.63;;;6.48;71.69
46379;BME280;32084;42.254;22.744;2022-12-08T06:01:00;95116.06;;;6.44;71.35
46379;BME280;32084;42.254;22.744;2022-12-08T06:03:26;95116.47;;;6.30;72.02
46379;BME280;32084;42.254;22.744;2022-12-08T06:05:52;95114.06;;;6.27;72.39
46379;BME280;32084;42.254;22.744;2022-12-08T06:08:18;95116.72;;;6.27;72.66
46379;BME280;32084;42.254;22.744;2022-12-08T06:10:44;95120.88;;;6.20;73.38
46379;BME280;32084;42.254;22.744;2022-12-08T06:13:11;95126.97;;;6.41;72.92
46379;BME280;32084;42.254;22.744;2022-12-08T06:15:39;95130.19;;;6.45;72.24
46379;BME280;32084;42.254;22.744;2022-12-08T06:18:05;95123.06;;;6.45;71.65
46379;BME280;32084;42.254;22.744;2022-12-08T06:20:32;95131.72;;;6.38;72.41
46379;BME280;32084;42.254;22.744;2022-12-08T06:22:58;95125.81;;;6.24;73.88
46379;BME280;32084;42.254;22.744;2022-12-08T06:25:24;95122.72;;;6.19;74.08
46379;BME280;32084;42.254;22.744;2022-12-08T06:27:50;95127.75;;;6.22;74.65
46379;BME280;32084;42.254;22.744;2022-12-08T06:30:16;95130.22;;;6.14;75.41
46379;BME280;32084;42.254;22.744;2022-12-08T06:32:43;95132.31;;;6.61;74.08
46379;BME280;32084;42.254;22.744;2022-12-08T06:35:09;95132.06;;;7.03;72.56
46379;BME280;32084;42.254;22.744;2022-12-08T06:37:35;95135.72;;;7.21;71.96
46379;BME280;32084;42.254;22.744;2022-12-08T06:40:02;95141.44;;;7.46;71.37
46379;BME280;32084;42.254;22.744;2022-12-08T06:42:28;95143.22;;;7.55;71.15
46379;BME280;32084;42.254;22.744;2022-12-08T06:45:10;95139.25;;;7.79;70.43
46379;BME280;32084;42.254;22.744;2022-12-08T06:47:36;95140.06;;;7.89;69.83
46379;BME280;32084;42.254;22.744;2022-12-08T06:50:03;95149.31;;;7.85;69.62
46379;BME280;32084;42.254;22.744;2022-12-08T06:52:29;95142.47;;;7.82;69.77
46379;BME280;32084;42.254;22.744;2022-12-08T06:54:55;95139.66;;;7.84;69.46
46379;BME280;32084;42.254;22.744;2022-12-08T06:57:21;95146.78;;;7.93;69.48
46379;BME280;32084;42.254;22.744;2022-12-08T06:59:49;95145.50;;;8.35;67.90
46379;BME280;32084;42.254;22.744;2022-12-08T07:02:15;95144.25;;;8.29;67.84
46379;BME280;32084;42.254;22.744;2022-12-08T07:04:42;95151.41;;;8.29;67.91
46379;BME280;32084;42.254;22.744;2022-12-08T07:07:08;95156.78;;;9.82;64.54
46379;BME280;32084;42.254;22.744;2022-12-08T07:09:35;95160.94;;;12.68;54.08
46379;BME280;32084;42.254;22.744;2022-12-08T07:12:02;95153.41;;;11.26;58.03
46379;BME280;32084;42.254;22.744;2022-12-08T07:14:28;95153.44;;;10.32;61.46
46379;BME280;32084;42.254;22.744;2022-12-08T07:16:55;95159.78;;;9.61;63.52
46379;BME280;32084;42.254;22.744;2022-12-08T07:19:21;95162.97;;;9.21;65.70
46379;BME280;32084;42.254;22.744;2022-12-08T07:21:47;95160.59;;;9.17;66.03
46379;BME280;32084;42.254;22.744;2022-12-08T07:24:13;95160.28;;;9.21;65.78
46379;BME280;32084;42.254;22.744;2022-12-08T07:26:39;95156.09;;;9.36;66.06
46379;BME280;32084;42.254;22.744;2022-12-08T07:29:06;95159.72;;;9.53;65.90
46379;BME280;32084;42.254;22.744;2022-12-08T07:31:32;95159.94;;;9.60;65.01
46379;BME280;32084;42.254;22.744;2022-12-08T07:33:59;95140.41;;;9.77;65.05
46379;BME280;32084;42.254;22.744;2022-12-08T07:36:25;95145.72;;;10.03;64.07
46379;BME280;32084;42.254;22.744;2022-12-08T07:38:51;95138.41;;;10.31;64.04
46379;BME280;32084;42.254;22.744;2022-12-08T07:41:21;95133.81;;;10.50;62.62
46379;BME280;32084;42.254;22.744;2022-12-08T07:43:48;95136.66;;;10.57;62.90
46379;BME280;32084;42.254;22.744;2022-12-08T07:46:17;95148.88;;;10.51;63.69
46379;BME280;32084;42.254;22.744;2022-12-08T07:48:43;95148.38;;;10.64;63.91
46379;BME280;32084;42.254;22.744;2022-12-08T07:51:10;95145.25;;;10.77;63.80
46379;BME280;32084;42.254;22.744;2022-12-08T07:53:37;95153.00;;;10.88;63.28
46379;BME280;32084;42.254;22.744;2022-12-08T07:56:05;95151.59;;;10.75;63.19
46379;BME280;32084;42.254;22.744;2022-12-08T07:58:31;95158.50;;;10.94;63.41
46379;BME280;32084;42.254;22.744;2022-12-08T08:00:57;95163.75;;;11.12;62.87
46379;BME280;32084;42.254;22.744;2022-12-08T08:03:23;95163.06;;;11.10;63.11
46379;BME280;32084;42.254;22.744;2022-12-08T08:05:50;95169.09;;;11.04;63.60
46379;BME280;32084;42.254;22.744;2022-12-08T08:08:16;95170.84;;;10.79;64.47
46379;BME280;32084;42.254;22.744;2022-12-08T08:10:42;95161.13;;;10.70;64.57
46379;BME280;32084;42.254;22.744;2022-12-08T08:13:09;95166.00;;;10.83;64.41
46379;BME280;32084;42.254;22.744;2022-12-08T08:15:35;95160.88;;;11.06;63.76
46379;BME280;32084;42.254;22.744;2022-12-08T08:18:01;95169.59;;;11.08;63.46
46379;BME280;32084;42.254;22.744;2022-12-08T08:20:27;95174.97;;;11.16;63.48
46379;BME280;32084;42.254;22.744;2022-12-08T08:22:53;95171.31;;;11.25;63.06
46379;BME280;32084;42.254;22.744;2022-12-08T08:25:20;95164.09;;;11.18;63.20
46379;BME280;32084;42.254;22.744;2022-12-08T08:27:47;95164.63;;;11.21;63.55
46379;BME280;32084;42.254;22.744;2022-12-08T08:30:14;95163.09;;;11.19;63.21
46379;BME280;32084;42.254;22.744;2022-12-08T08:32:40;95158.75;;;11.18;63.20
46379;BME280;32084;42.254;22.744;2022-12-08T08:35:06;95160.09;;;11.38;62.89
46379;BME280;32084;42.254;22.744;2022-12-08T08:37:33;95158.78;;;11.67;61.99
46379;BME280;32084;42.254;22.744;2022-12-08T08:39:59;95162.47;;;12.07;60.99
46379;BME280;32084;42.254;22.744;2022-12-08T08:42:26;95162.47;;;11.82;61.86
46379;BME280;32084;42.254;22.744;2022-12-08T08:44:52;95154.09;;;11.52;62.58
46379;BME280;32084;42.254;22.744;2022-12-08T08:47:18;95147.56;;;11.47;63.09
46379;BME280;32084;42.254;22.744;2022-12-08T08:49:44;95140.72;;;11.44;62.90
46379;BME280;32084;42.254;22.744;2022-12-08T08:52:12;95139.84;;;11.44;63.80
46379;BME280;32084;42.254;22.744;2022-12-08T08:54:38;95138.34;;;11.49;63.15
46379;BME280;32084;42.254;22.744;2022-12-08T08:57:04;95132.84;;;11.59;63.31
46379;BME280;32084;42.254;22.744;2022-12-08T08:59:30;95122.78;;;11.69;63.32
46379;BME280;32084;42.254;22.744;2022-12-08T09:01:57;95130.16;;;11.84;62.99
46379;BME280;32084;42.254;22.744;2022-12-08T09:04:23;95132.97;;;12.15;61.92
46379;BME280;32084;42.254;22.744;2022-12-08T09:06:50;95129.78;;;12.67;60.30
46379;BME280;32084;42.254;22.744;2022-12-08T09:09:16;95137.47;;;13.56;57.47
46379;BME280;32084;42.254;22.744;2022-12-08T09:11:43;95120.13;;;14.20;55.81
46379;BME280;32084;42.254;22.744;2022-12-08T09:14:10;95120.19;;;14.56;55.02
46379;BME280;32084;42.254;22.744;2022-12-08T09:16:37;95112.84;;;14.95;53.95
46379;BME280;32084;42.254;22.744;2022-12-08T09:19:03;95102.84;;;14.89;54.84
46379;BME280;32084;42.254;22.744;2022-12-08T09:21:29;95108.75;;;16.35;50.61
46379;BME280;32084;42.254;22.744;2022-12-08T09:23:56;95124.81;;;20.08;42.81
46379;BME280;32084;42.254;22.744;2022-12-08T09:26:24;95125.09;;;22.03;38.80
46379;BME280;32084;42.254;22.744;2022-12-08T09:28:52;95121.50;;;23.04;37.34
46379;BME280;32084;42.254;22.744;2022-12-08T09:31:19;95120.03;;;22.07;38.21
46379;BME280;32084;42.254;22.744;2022-12-08T09:33:46;95109.53;;;21.01;39.77
46379;BME280;32084;42.254;22.744;2022-12-08T09:36:13;95094.13;;;17.74;45.92
46379;BME280;32084;42.254;22.744;2022-12-08T09:38:40;95072.75;;;16.14;50.52
46379;BME280;32084;42.254;22.744;2022-12-08T09:41:14;95076.50;;;15.70;51.40
46379;BME280;32084;42.254;22.744;2022-12-08T09:46:14;95094.75;;;20.60;41.40
46379;BME280;32084;42.254;22.744;2022-12-08T09:48:44;95091.78;;;20.99;40.66
46379;BME280;32084;42.254;22.744;2022-12-08T09:51:13;95094.59;;;21.41;39.56
46379;BME280;32084;42.254;22.744;2022-12-08T09:54:32;95098.78;;;22.63;38.16
46379;BME280;32084;42.254;22.744;2022-12-08T09:56:30;95100.66;;;23.79;35.60
46379;BME280;32084;42.254;22.744;2022-12-08T10:01:34;95106.13;;;25.20;33.39
46379;BME280;32084;42.254;22.744;2022-12-08T10:04:03;95101.47;;;27.31;30.86
46379;BME280;32084;42.254;22.744;2022-12-08T10:14:18;95052.19;;;21.21;39.10
46379;BME280;32084;42.254;22.744;2022-12-08T10:16:50;95042.88;;;20.80;39.77
46379;BME280;32084;42.254;22.744;2022-12-08T10:19:22;95049.38;;;22.12;38.28
46379;BME280;32084;42.254;22.744;2022-12-08T10:21:49;95059.06;;;23.77;35.30
46379;BME280;32084;42.254;22.744;2022-12-08T10:24:23;95045.28;;;21.79;37.79
46379;BME280;32084;42.254;22.744;2022-12-08T10:26:52;95028.06;;;20.58;40.07
46379;BME280;32084;42.254;22.744;2022-12-08T10:29:19;95029.66;;;20.47;40.46
46379;BME280;32084;42.254;22.744;2022-12-08T10:31:45;95017.88;;;18.50;43.93
46379;BME280;32084;42.254;22.744;2022-12-08T10:34:16;95009.88;;;17.50;46.62
46379;BME280;32084;42.254;22.744;2022-12-08T10:42:08;94994.31;;;15.81;51.23
46379;BME280;32084;42.254;22.744;2022-12-08T10:44:37;95001.94;;;17.09;48.88
46379;BME280;32084;42.254;22.744;2022-12-08T10:47:13;94994.06;;;18.01;46.41
46379;BME280;32084;42.254;22.744;2022-12-08T10:49:39;95004.88;;;18.14;46.01
46379;BME280;32084;42.254;22.744;2022-12-08T10:52:20;95001.34;;;17.93;46.47
46379;BME280;32084;42.254;22.744;2022-12-08T10:54:51;95005.28;;;17.17;47.82
46379;BME280;32084;42.254;22.744;2022-12-08T10:57:19;94998.56;;;16.93;49.40
46379;BME280;32084;42.254;22.744;2022-12-08T10:59:46;95006.06;;;18.90;45.62
46379;BME280;32084;42.254;22.744;2022-12-08T11:02:19;95005.75;;;20.93;41.07
46379;BME280;32084;42.254;22.744;2022-12-08T11:04:46;94997.75;;;22.06;39.45
46379;BME280;32084;42.254;22.744;2022-12-08T11:07:19;95007.31;;;22.67;37.85
46379;BME280;32084;42.254;22.744;2022-12-08T11:09:46;94992.44;;;22.11;38.81
46379;BME280;32084;42.254;22.744;2022-12-08T11:12:15;94990.72;;;21.20;40.39
46379;BME280;32084;42.254;22.744;2022-12-08T11:17:09;94967.69;;;20.62;42.09
46379;BME280;32084;42.254;22.744;2022-12-08T11:19:38;94970.50;;;20.12;42.80
46379;BME280;32084;42.254;22.744;2022-12-08T11:27:31;94945.13;;;18.16;46.64
46379;BME280;32084;42.254;22.744;2022-12-08T11:29:59;94934.19;;;17.57;48.17
46379;BME280;32084;42.254;22.744;2022-12-08T11:32:26;94931.91;;;16.87;50.47
46379;BME280;32084;42.254;22.744;2022-12-08T11:34:57;94942.38;;;16.49;51.55
46379;BME280;32084;42.254;22.744;2022-12-08T11:37:34;94930.38;;;16.10;52.86
46379;BME280;32084;42.254;22.744;2022-12-08T11:40:03;94925.88;;;15.82;53.88
46379;BME280;32084;42.254;22.744;2022-12-08T11:42:33;94929.88;;;15.58;54.72
46379;BME280;32084;42.254;22.744;2022-12-08T11:45:09;94928.72;;;15.39;55.72
46379;BME280;32084;42.254;22.744;2022-12-08T11:47:48;94944.78;;;15.26;56.92
46379;BME280;32084;42.254;22.744;2022-12-08T11:50:23;94938.78;;;15.30;57.08
46379;BME280;32084;42.254;22.744;2022-12-08T11:52:52;94931.44;;;15.46;56.81
46379;BME280;32084;42.254;22.744;2022-12-08T11:58:02;94918.31;;;15.36;56.26
46379;BME280;32084;42.254;22.744;2022-12-08T12:00:30;94932.81;;;15.07;56.39
46379;BME280;32084;42.254;22.744;2022-12-08T12:03:02;94929.41;;;14.98;56.70
46379;BME280;32084;42.254;22.744;2022-12-08T12:11:13;94914.41;;;14.89;54.81
46379;BME280;32084;42.254;22.744;2022-12-08T12:18:30;94908.75;;;15.05;55.30
46379;BME280;32084;42.254;22.744;2022-12-08T12:21:09;94900.34;;;15.15;55.34
46379;BME280;32084;42.254;22.744;2022-12-08T12:26:15;94909.66;;;15.40;53.81
46379;BME280;32084;42.254;22.744;2022-12-08T12:28:44;94904.84;;;15.36;54.19
46379;BME280;32084;42.254;22.744;2022-12-08T12:35:14;94905.38;;;14.96;55.41
46379;BME280;32084;42.254;22.744;2022-12-08T12:37:41;94897.25;;;14.90;56.00
46379;BME280;32084;42.254;22.744;2022-12-08T12:40:15;94902.19;;;14.86;55.91
46379;BME280;32084;42.254;22.744;2022-12-08T12:42:43;94894.69;;;14.81;56.39
46379;BME280;32084;42.254;22.744;2022-12-08T12:47:44;94893.06;;;14.87;56.35
46379;BME280;32084;42.254;22.744;2022-12-08T12:50:11;94887.06;;;14.85;55.46
46379;BME280;32084;42.254;22.744;2022-12-08T12:52:38;94884.31;;;14.78;55.63
46379;BME280;32084;42.254;22.744;2022-12-08T12:57:35;94887.84;;;14.79;56.19
46379;BME280;32084;42.254;22.744;2022-12-08T13:02:28;94881.47;;;14.87;55.28
46379;BME280;32084;42.254;22.744;2022-12-08T13:07:26;94877.59;;;14.89;55.20
46379;BME280;32084;42.254;22.744;2022-12-08T13:12:43;94885.84;;;14.88;54.93
46379;BME280;32084;42.254;22.744;2022-12-08T13:15:16;94880.66;;;14.86;55.43
46379;BME280;32084;42.254;22.744;2022-12-08T13:17:44;94887.47;;;14.82;55.35
46379;BME280;32084;42.254;22.744;2022-12-08T13:20:16;94872.47;;;14.73;56.37
46379;BME280;32084;42.254;22.744;2022-12-08T13:30:47;94877.13;;;14.64;56.57
46379;BME280;32084;42.254;22.744;2022-12-08T13:33:16;94877.53;;;14.61;56.88
46379;BME280;32084;42.254;22.744;2022-12-08T13:35:44;94878.47;;;14.53;57.43
46379;BME280;32084;42.254;22.744;2022-12-08T13:38:14;94885.25;;;14.49;57.50
46379;BME280;32084;42.254;22.744;2022-12-08T13:40:41;94883.59;;;14.48;57.47
46379;BME280;32084;42.254;22.744;2022-12-08T13:43:10;94877.75;;;14.44;58.04
46379;BME280;32084;42.254;22.744;2022-12-08T13:45:40;94882.03;;;14.39;58.22
46379;BME280;32084;42.254;22.744;2022-12-08T13:48:18;94884.91;;;14.37;58.21
46379;BME280;32084;42.254;22.744;2022-12-08T13:51:03;94884.88;;;14.31;58.10
46379;BME280;32084;42.254;22.744;2022-12-08T13:53:37;94877.63;;;14.31;58.82
46379;BME280;32084;42.254;22.744;2022-12-08T13:56:04;94889.19;;;14.32;58.29
46379;BME280;32084;42.254;22.744;2022-12-08T13:58:32;94893.03;;;14.22;59.04
46379;BME280;32084;42.254;22.744;2022-12-08T14:01:13;94891.38;;;14.21;59.16
46379;BME280;32084;42.254;22.744;2022-12-08T14:03:56;94883.03;;;14.16;59.09
46379;BME280;32084;42.254;22.744;2022-12-08T14:08:54;94886.50;;;14.10;59.57
46379;BME280;32084;42.254;22.744;2022-12-08T14:11:39;94889.53;;;14.07;60.00
46379;BME280;32084;42.254;22.744;2022-12-08T14:14:08;94894.09;;;14.06;59.94
46379;BME280;32084;42.254;22.744;2022-12-08T14:16:38;94887.63;;;14.01;59.81
46379;BME280;32084;42.254;22.744;2022-12-08T14:19:18;94899.66;;;14.05;59.83
46379;BME280;32084;42.254;22.744;2022-12-08T14:21:46;94896.31;;;14.03;60.42
46379;BME280;32084;42.254;22.744;2022-12-08T14:24:12;94902.75;;;14.02;60.89
46379;BME280;32084;42.254;22.744;2022-12-08T14:26:38;94903.09;;;13.99;60.72
46379;BME280;32084;42.254;22.744;2022-12-08T14:29:07;94909.72;;;13.96;60.74
46379;BME280;32084;42.254;22.744;2022-12-08T14:31:34;94907.00;;;13.96;60.49
46379;BME280;32084;42.254;22.744;2022-12-08T14:34:01;94903.88;;;13.93;61.19
46379;BME280;32084;42.254;22.744;2022-12-08T14:36:28;94900.97;;;13.94;60.95
46379;BME280;32084;42.254;22.744;2022-12-08T14:38:54;94907.84;;;13.97;60.94
46379;BME280;32084;42.254;22.744;2022-12-08T14:41:24;94901.66;;;13.96;61.15
46379;BME280;32084;42.254;22.744;2022-12-08T14:43:57;94892.47;;;13.91;61.56